Time;durP1;ratioP1;P1;durP2;ratioP2;P2;SDS_P1;SDS_P2;PMS_P1;PMS_P2;Temp;Humidity;BMP_temperature;BMP_pressure;BME280_temperature;BME280_humidity;BME280_pressure;Samples;Min_cycle;Max_cycle;Signal;HPM_P1;HPM_P2
2021/11/13 00:00:42;;;;;;;20.42;16.35;;;10.50;80.30;;;;;;4991821;28;95609;-76
2021/11/13 00:03:12;;;;;;;20.30;15.63;;;10.50;80.50;;;;;;4994040;28;95127;-74
2021/11/13 00:05:40;;;;;;;23.25;16.52;;;10.50;80.10;;;;;;4994375;28;92489;-74
2021/11/13 00:08:08;;;;;;;21.48;16.00;;;10.50;80.50;;;;;;4996157;28;92513;-74
2021/11/13 00:10:35;;;;;;;21.92;16.55;;;10.50;80.40;;;;;;4997937;28;93059;-74
2021/11/13 00:13:06;;;;;;;23.00;16.58;;;10.50;80.00;;;;;;4997566;28;92767;-74
2021/11/13 00:15:33;;;;;;;23.77;16.48;;;10.40;80.20;;;;;;4996540;28;92474;-74
2021/11/13 00:18:00;;;;;;;20.52;16.23;;;10.40;80.20;;;;;;4998058;28;91690;-74
2021/11/13 00:20:28;;;;;;;22.55;16.90;;;10.40;80.30;;;;;;4996393;28;93023;-74
2021/11/13 00:22:57;;;;;;;24.63;17.10;;;10.50;80.10;;;;;;4996190;28;92823;-74
2021/11/13 00:25:25;;;;;;;23.15;15.27;;;10.50;80.10;;;;;;4996655;28;95075;-74
2021/11/13 00:27:52;;;;;;;22.77;16.20;;;10.50;80.30;;;;;;4997575;28;92469;-74
2021/11/13 00:30:19;;;;;;;21.63;16.02;;;10.40;80.00;;;;;;4997214;28;100397;-74
2021/11/13 00:32:46;;;;;;;22.45;16.08;;;10.50;79.80;;;;;;4995976;28;97293;-74
2021/11/13 00:35:14;;;;;;;23.83;16.42;;;10.50;79.80;;;;;;4997213;28;92547;-74
2021/11/13 00:37:41;;;;;;;20.65;15.93;;;10.50;80.10;;;;;;4997583;28;92451;-74
2021/11/13 00:40:11;;;;;;;25.08;17.40;;;10.50;79.90;;;;;;4995773;28;93118;-74
2021/11/13 00:42:38;;;;;;;22.77;16.80;;;10.50;79.70;;;;;;4997677;28;94770;-74
2021/11/13 00:45:05;;;;;;;20.92;15.50;;;10.50;79.80;;;;;;4995351;28;92706;-74
2021/11/13 00:47:33;;;;;;;21.00;15.73;;;10.50;80.10;;;;;;4979888;28;92446;-74
2021/11/13 00:49:59;;;;;;;23.40;15.27;;;10.50;79.70;;;;;;4995846;28;95912;-74
2021/11/13 00:52:28;;;;;;;26.45;17.48;;;10.50;80.00;;;;;;4997132;28;96485;-74
2021/11/13 00:54:55;;;;;;;24.13;17.52;;;10.50;79.90;;;;;;4997223;28;92382;-74
2021/11/13 00:57:22;;;;;;;22.77;16.95;;;10.50;79.90;;;;;;4997165;28;92521;-74
2021/11/13 00:59:49;;;;;;;22.40;16.05;;;10.50;80.00;;;;;;4996930;28;93092;-74
2021/11/13 01:02:16;;;;;;;20.77;15.77;;;10.50;79.70;;;;;;4996602;28;92880;-74
2021/11/13 01:04:43;;;;;;;24.10;15.63;;;10.60;79.70;;;;;;4997033;28;92455;-74
2021/11/13 01:07:11;;;;;;;21.30;16.45;;;10.50;79.80;;;;;;4997149;28;91721;-74
2021/11/13 01:09:38;;;;;;;21.15;15.95;;;10.50;80.10;;;;;;4996845;28;93144;-74
2021/11/13 01:12:06;;;;;;;21.52;14.73;;;10.60;80.30;;;;;;4996793;28;92955;-74
2021/11/13 01:14:39;;;;;;;25.85;16.42;;;10.60;80.00;;;;;;4977119;28;107002;-74
2021/11/13 01:17:09;;;;;;;19.02;15.30;;;10.60;80.40;;;;;;4995338;28;92545;-74
2021/11/13 01:19:38;;;;;;;23.55;17.17;;;10.60;80.10;;;;;;4994031;28;94187;-75
2021/11/13 01:22:05;;;;;;;21.65;16.52;;;10.60;79.90;;;;;;4995060;28;93007;-75
2021/11/13 01:24:33;;;;;;;19.58;16.80;;;10.60;79.90;;;;;;4996777;28;92512;-75
2021/11/13 01:27:00;;;;;;;18.80;15.82;;;10.60;79.90;;;;;;4995328;28;92570;-75
2021/11/13 01:29:27;;;;;;;22.83;17.67;;;10.60;79.90;;;;;;4996392;28;93558;-74
2021/11/13 01:31:54;;;;;;;19.92;16.27;;;10.60;80.30;;;;;;4996805;28;94453;-74
2021/11/13 01:34:21;;;;;;;23.67;17.55;;;10.60;80.40;;;;;;4995041;28;92602;-74
2021/11/13 01:36:48;;;;;;;24.48;16.45;;;10.60;80.50;;;;;;4996661;28;92431;-74
2021/11/13 01:39:16;;;;;;;25.15;17.88;;;10.60;80.50;;;;;;4994669;28;107659;-74
2021/11/13 01:41:43;;;;;;;26.83;18.48;;;10.60;80.60;;;;;;4996068;28;95107;-75
2021/11/13 01:44:10;;;;;;;25.88;18.77;;;10.60;80.60;;;;;;4996061;28;92422;-74
2021/11/13 01:46:40;;;;;;;25.92;18.25;;;10.70;80.60;;;;;;4996623;28;92568;-74
2021/11/13 01:49:07;;;;;;;24.23;18.00;;;10.70;80.50;;;;;;4978011;28;95226;-74
2021/11/13 01:51:35;;;;;;;25.70;18.73;;;10.70;80.60;;;;;;4994823;28;94052;-74
2021/11/13 01:54:06;;;;;;;27.92;18.55;;;10.70;80.90;;;;;;4996279;28;92437;-74
2021/11/13 01:56:40;;;;;;;26.45;20.15;;;10.80;80.80;;;;;;4996986;28;91654;-74
2021/11/13 01:59:10;;;;;;;26.45;19.38;;;10.80;81.30;;;;;;4995950;28;92806;-74
2021/11/13 02:01:37;;;;;;;25.55;18.45;;;10.70;80.90;;;;;;4996271;28;93353;-74
2021/11/13 02:04:06;;;;;;;26.83;18.50;;;10.70;81.40;;;;;;4994784;28;94862;-75
2021/11/13 02:06:34;;;;;;;26.60;20.20;;;10.70;81.50;;;;;;4996144;28;92794;-76
2021/11/13 02:09:02;;;;;;;26.45;19.15;;;10.70;81.60;;;;;;4995936;28;92923;-75
2021/11/13 02:11:29;;;;;;;26.27;18.40;;;10.70;81.80;;;;;;4995548;28;92879;-75
2021/11/13 02:13:59;;;;;;;25.40;19.90;;;10.70;82.60;;;;;;4996035;28;92862;-75
2021/11/13 02:16:26;;;;;;;29.48;20.83;;;10.70;83.00;;;;;;4994144;28;93008;-75
2021/11/13 02:18:55;;;;;;;29.10;18.90;;;10.60;82.90;;;;;;4995885;28;93005;-75
2021/11/13 02:21:22;;;;;;;28.23;20.30;;;10.70;83.00;;;;;;4995927;28;92897;-75
2021/11/13 02:23:49;;;;;;;26.48;20.77;;;10.70;83.30;;;;;;4994815;28;92630;-75
2021/11/13 02:26:16;;;;;;;25.65;19.02;;;10.60;83.70;;;;;;4995555;28;92463;-75
2021/11/13 02:28:44;;;;;;;27.25;20.00;;;10.60;83.80;;;;;;4993812;28;113212;-75
2021/11/13 02:31:12;;;;;;;29.73;19.98;;;10.50;83.90;;;;;;4977838;28;95061;-75
2021/11/13 02:33:39;;;;;;;28.00;20.25;;;10.60;84.30;;;;;;4995569;28;92389;-75
2021/11/13 02:36:09;;;;;;;24.55;17.58;;;10.50;84.20;;;;;;4995881;28;92767;-75
2021/11/13 02:38:38;;;;;;;29.65;21.08;;;10.50;84.50;;;;;;4993986;28;94928;-75
2021/11/13 02:41:08;;;;;;;24.83;18.60;;;10.50;84.40;;;;;;4995388;28;92723;-75
2021/11/13 02:43:37;;;;;;;29.10;20.85;;;10.60;84.40;;;;;;4995703;28;92488;-75
2021/11/13 02:46:06;;;;;;;27.48;19.83;;;10.60;84.30;;;;;;4995575;28;91818;-76
2021/11/13 02:48:35;;;;;;;23.38;16.02;;;10.50;84.70;;;;;;4995088;28;93068;-75
2021/11/13 02:51:03;;;;;;;28.70;21.05;;;10.50;84.70;;;;;;4995403;28;93099;-75
2021/11/13 02:53:30;;;;;;;26.85;19.15;;;10.50;84.70;;;;;;4994047;28;94876;-75
2021/11/13 02:55:59;;;;;;;25.55;18.98;;;10.50;84.90;;;;;;4994829;28;105765;-75
2021/11/13 02:58:26;;;;;;;23.15;19.33;;;10.50;84.80;;;;;;4994895;28;93064;-75
2021/11/13 03:00:57;;;;;;;25.95;19.27;;;10.50;84.90;;;;;;4995232;28;92932;-75
2021/11/13 03:03:25;;;;;;;22.70;17.80;;;10.50;85.00;;;;;;4995450;28;92977;-75
2021/11/13 03:05:58;;;;;;;23.65;18.85;;;10.50;85.10;;;;;;4988221;28;92519;-75
2021/11/13 03:08:31;;;;;;;21.53;18.63;;;10.50;85.10;;;;;;4975172;28;92949;-75
2021/11/13 03:11:04;;;;;;;21.80;17.15;;;10.50;85.10;;;;;;4973944;28;93953;-75
2021/11/13 03:13:32;;;;;;;25.25;19.30;;;10.50;85.30;;;;;;4974966;28;93097;-75
2021/11/13 03:16:01;;;;;;;24.23;18.35;;;10.50;85.60;;;;;;4975009;28;92406;-75
2021/11/13 03:18:28;;;;;;;23.95;19.15;;;10.50;85.90;;;;;;4972180;28;96592;-75
2021/11/13 03:20:56;;;;;;;23.33;19.38;;;10.50;86.50;;;;;;4974959;28;95214;-75
2021/11/13 03:23:24;;;;;;;25.98;19.67;;;10.50;86.10;;;;;;4974715;28;95930;-75
2021/11/13 03:26:00;;;;;;;22.00;17.20;;;10.40;86.20;;;;;;4975163;28;92462;-75
2021/11/13 03:28:29;;;;;;;24.80;18.65;;;10.50;86.10;;;;;;4975089;28;93121;-75
2021/11/13 03:31:01;;;;;;;25.02;19.55;;;10.40;86.40;;;;;;4973570;28;95725;-75
2021/11/13 03:33:30;;;;;;;22.42;17.20;;;10.50;86.20;;;;;;4975112;28;92384;-75
2021/11/13 03:35:59;;;;;;;20.63;17.67;;;10.50;86.20;;;;;;4975361;28;91752;-75
2021/11/13 03:38:26;;;;;;;22.50;18.17;;;10.50;86.30;;;;;;4973285;28;93159;-75
2021/11/13 03:40:53;;;;;;;20.15;16.08;;;10.50;86.50;;;;;;4975086;28;92898;-75
2021/11/13 03:43:21;;;;;;;22.58;18.10;;;10.50;86.20;;;;;;4975976;28;94825;-75
2021/11/13 03:45:51;;;;;;;22.30;17.92;;;10.50;86.30;;;;;;4977965;28;92451;-75
2021/11/13 03:48:18;;;;;;;19.30;16.15;;;10.60;86.00;;;;;;4978266;28;93077;-75
2021/11/13 03:50:47;;;;;;;20.83;16.63;;;10.60;85.90;;;;;;4976757;28;92725;-75
2021/11/13 03:53:14;;;;;;;18.70;15.50;;;10.60;86.00;;;;;;4978158;28;92543;-75
2021/11/13 03:55:41;;;;;;;19.02;15.57;;;10.60;85.80;;;;;;4977985;28;92496;-75
2021/11/13 03:58:09;;;;;;;19.52;17.10;;;10.60;85.90;;;;;;4978017;28;94211;-75
2021/11/13 04:00:36;;;;;;;17.45;15.18;;;10.60;85.80;;;;;;4978279;28;94541;-75
2021/11/13 04:03:03;;;;;;;16.75;13.95;;;10.60;85.60;;;;;;4960803;28;92550;-76
2021/11/13 04:05:30;;;;;;;15.13;13.55;;;10.70;85.60;;;;;;4977986;28;92908;-75
2021/11/13 04:08:03;;;;;;;16.60;13.77;;;10.70;85.70;;;;;;4976604;28;97772;-75
2021/11/13 04:10:31;;;;;;;15.15;13.55;;;10.70;85.60;;;;;;4977501;28;96062;-75
2021/11/13 04:12:59;;;;;;;15.75;13.77;;;10.70;85.80;;;;;;4978176;28;92760;-75
2021/11/13 04:15:26;;;;;;;16.65;13.65;;;10.70;85.80;;;;;;4977607;28;92440;-75
2021/11/13 04:17:54;;;;;;;19.40;15.20;;;10.70;85.60;;;;;;4976677;28;92934;-75
2021/11/13 04:20:21;;;;;;;16.20;13.45;;;10.80;85.70;;;;;;4977919;28;92393;-75
2021/11/13 04:22:50;;;;;;;18.27;15.10;;;10.80;85.20;;;;;;4977605;28;92351;-75
2021/11/13 04:25:18;;;;;;;18.95;15.00;;;10.80;85.50;;;;;;4977073;28;92189;-75
2021/11/13 04:27:49;;;;;;;18.05;16.10;;;10.80;85.50;;;;;;4977413;28;94208;-75
2021/11/13 04:30:16;;;;;;;15.75;13.63;;;10.90;85.30;;;;;;4976333;28;92524;-75
2021/11/13 04:32:46;;;;;;;16.95;15.05;;;10.80;85.30;;;;;;4976281;28;94879;-75
2021/11/13 04:35:34;;;;;;;16.75;13.88;;;10.80;85.60;;;;;;4976330;28;92910;-75
2021/11/13 04:38:03;;;;;;;19.73;15.70;;;10.90;86.00;;;;;;4977757;28;93042;-75
2021/11/13 04:40:34;;;;;;;19.73;16.35;;;10.90;85.40;;;;;;4975826;28;94179;-75
2021/11/13 04:43:01;;;;;;;17.05;14.82;;;10.90;85.40;;;;;;4975984;28;92525;-75
2021/11/13 04:45:28;;;;;;;21.25;15.18;;;10.90;85.20;;;;;;4977292;28;92585;-75
2021/11/13 04:47:55;;;;;;;17.20;14.68;;;10.90;85.30;;;;;;4977423;28;93091;-75
2021/11/13 04:50:25;;;;;;;18.23;15.15;;;11.00;85.20;;;;;;4977682;28;94605;-75
2021/11/13 04:52:53;;;;;;;18.60;15.27;;;11.00;85.20;;;;;;4975850;28;92568;-75
2021/11/13 04:55:21;;;;;;;18.00;15.35;;;11.00;85.20;;;;;;4977308;28;92466;-75
2021/11/13 04:57:53;;;;;;;17.52;15.60;;;11.00;85.30;;;;;;4975536;28;95587;-75
2021/11/13 05:00:23;;;;;;;17.20;15.07;;;11.00;85.50;;;;;;4976009;28;95260;-75
2021/11/13 05:02:51;;;;;;;19.58;16.23;;;11.00;85.40;;;;;;4977022;28;92479;-75
2021/11/13 05:05:20;;;;;;;19.83;17.02;;;10.90;85.70;;;;;;4977352;28;92504;-75
2021/11/13 05:07:48;;;;;;;16.10;14.32;;;11.00;85.40;;;;;;4976798;28;92983;-75
2021/11/13 05:10:15;;;;;;;19.08;15.98;;;11.00;85.50;;;;;;4975525;28;94028;-75
2021/11/13 05:12:43;;;;;;;18.27;15.15;;;11.00;85.40;;;;;;4976878;28;92487;-75
2021/11/13 05:15:13;;;;;;;19.35;15.25;;;11.00;85.50;;;;;;4976291;28;91668;-75
2021/11/13 05:17:41;;;;;;;18.17;15.35;;;11.10;85.50;;;;;;4975112;28;94012;-75
2021/11/13 05:20:13;;;;;;;20.95;16.63;;;11.10;85.50;;;;;;4976761;28;93928;-75
2021/11/13 05:22:42;;;;;;;19.17;15.90;;;11.10;85.30;;;;;;4973798;28;94959;-75
2021/11/13 05:25:11;;;;;;;18.27;15.18;;;11.10;85.20;;;;;;4975674;28;92576;-75
2021/11/13 05:27:39;;;;;;;18.88;15.55;;;11.10;85.20;;;;;;4975655;28;117108;-75
2021/11/13 05:30:09;;;;;;;19.73;15.25;;;11.10;85.30;;;;;;4975557;28;92949;-75
2021/11/13 05:32:36;;;;;;;18.08;15.43;;;11.10;85.20;;;;;;4976488;28;92437;-75
2021/11/13 05:35:04;;;;;;;20.48;15.85;;;11.10;85.10;;;;;;4976803;28;92443;-75
2021/11/13 05:37:31;;;;;;;20.40;16.10;;;11.10;85.20;;;;;;4975043;28;95775;-75
2021/11/13 05:39:58;;;;;;;18.75;15.85;;;11.10;85.20;;;;;;4975025;28;101664;-75
2021/11/13 05:42:25;;;;;;;18.98;16.13;;;11.10;85.10;;;;;;4975341;28;92543;-75
2021/11/13 05:44:52;;;;;;;18.98;16.67;;;11.20;85.10;;;;;;4975906;28;92448;-75
2021/11/13 05:47:19;;;;;;;18.88;16.27;;;11.20;85.00;;;;;;4975232;28;95445;-75
2021/11/13 05:49:46;;;;;;;20.45;16.38;;;11.20;84.90;;;;;;4974512;28;96455;-75
2021/11/13 05:52:13;;;;;;;20.45;16.83;;;11.20;85.10;;;;;;4976395;28;92424;-75
2021/11/13 05:54:40;;;;;;;18.27;15.40;;;11.20;85.10;;;;;;4976308;28;92442;-75
2021/11/13 05:57:07;;;;;;;18.73;15.23;;;11.20;85.00;;;;;;4976103;28;93084;-75
2021/11/13 05:59:51;;;;;;;19.38;16.42;;;11.20;85.00;;;;;;4974610;28;94258;-75
2021/11/13 06:02:18;;;;;;;20.38;15.90;;;11.20;85.10;;;;;;4976255;28;92429;-75
2021/11/13 06:04:45;;;;;;;18.52;16.08;;;11.20;85.00;;;;;;4974370;28;91761;-75
2021/11/13 06:07:13;;;;;;;17.63;15.20;;;11.20;85.00;;;;;;4976113;28;93781;-75
2021/11/13 06:09:40;;;;;;;18.60;15.57;;;11.20;85.30;;;;;;4975820;28;92875;-75
2021/11/13 06:12:07;;;;;;;19.98;15.70;;;11.20;85.30;;;;;;4974984;28;94746;-75
2021/11/13 06:14:34;;;;;;;19.63;16.55;;;11.20;85.10;;;;;;4975404;28;108745;-75
2021/11/13 06:17:02;;;;;;;19.38;16.02;;;11.20;85.20;;;;;;4975585;28;92918;-75
2021/11/13 06:19:29;;;;;;;18.00;15.85;;;11.20;85.00;;;;;;4974736;28;92823;-75
2021/11/13 06:21:56;;;;;;;18.38;15.43;;;11.20;85.00;;;;;;4975831;28;92375;-75
2021/11/13 06:24:23;;;;;;;20.52;16.35;;;11.20;85.00;;;;;;4976009;28;92422;-75
2021/11/13 06:26:54;;;;;;;18.33;14.85;;;11.20;85.00;;;;;;4974320;28;93030;-75
2021/11/13 06:29:21;;;;;;;22.00;16.55;;;11.20;84.80;;;;;;4976239;28;91683;-75
2021/11/13 06:31:48;;;;;;;19.15;15.80;;;11.20;85.00;;;;;;4974379;28;92466;-75
2021/11/13 06:34:15;;;;;;;20.58;17.38;;;11.20;85.10;;;;;;4974389;28;98861;-75
2021/11/13 06:36:42;;;;;;;19.77;15.88;;;11.20;84.90;;;;;;4974625;28;95636;-75
2021/11/13 06:39:09;;;;;;;17.38;14.82;;;11.20;85.00;;;;;;4974377;28;97535;-75
2021/11/13 06:41:36;;;;;;;23.02;17.33;;;11.20;85.30;;;;;;4975736;28;92390;-75
2021/11/13 06:44:04;;;;;;;18.30;16.38;;;11.20;85.00;;;;;;4973743;28;92562;-75
2021/11/13 06:46:30;;;;;;;19.40;16.13;;;11.30;85.00;;;;;;4975172;28;93121;-75
2021/11/13 06:48:57;;;;;;;20.40;17.45;;;11.20;84.70;;;;;;4975429;28;92909;-75
2021/11/13 06:51:24;;;;;;;18.38;16.48;;;11.20;84.70;;;;;;4974535;28;92553;-75
2021/11/13 06:53:52;;;;;;;16.92;15.00;;;11.20;84.70;;;;;;4975896;28;91800;-75
2021/11/13 06:56:19;;;;;;;18.73;16.77;;;11.20;84.70;;;;;;4975484;28;93246;-75
2021/11/13 06:58:47;;;;;;;19.65;16.75;;;11.20;84.70;;;;;;4975219;28;92908;-75
2021/11/13 07:01:14;;;;;;;19.58;16.55;;;11.30;84.70;;;;;;4972737;28;101985;-75
2021/11/13 07:03:41;;;;;;;17.90;15.98;;;11.20;84.60;;;;;;4975623;28;93050;-75
2021/11/13 07:06:09;;;;;;;18.42;16.58;;;11.30;84.70;;;;;;4975091;28;93068;-75
2021/11/13 07:08:37;;;;;;;19.88;16.20;;;11.30;84.70;;;;;;4975309;28;93013;-75
2021/11/13 07:11:04;;;;;;;17.85;15.95;;;11.30;84.50;;;;;;4975460;28;92443;-75
2021/11/13 07:13:31;;;;;;;17.30;14.38;;;11.30;84.60;;;;;;4975339;28;92526;-75
2021/11/13 07:15:58;;;;;;;18.13;16.23;;;11.30;84.50;;;;;;4974685;28;93043;-75
2021/11/13 07:18:25;;;;;;;17.23;15.43;;;11.30;84.50;;;;;;4974752;28;92930;-75
2021/11/13 07:20:57;;;;;;;19.00;16.67;;;11.30;84.30;;;;;;4975151;28;92522;-75
2021/11/13 07:23:24;;;;;;;18.98;16.25;;;11.40;84.20;;;;;;4975567;28;92379;-75
2021/11/13 07:25:51;;;;;;;20.30;17.38;;;11.40;84.30;;;;;;4973133;28;110298;-76
2021/11/13 07:28:26;;;;;;;18.13;16.02;;;11.40;84.20;;;;;;4975043;28;94049;-75
2021/11/13 07:30:52;;;;;;;18.40;15.68;;;11.40;84.10;;;;;;4975002;28;92454;-75
2021/11/13 07:33:19;;;;;;;16.00;14.40;;;11.40;84.20;;;;;;4975393;28;92497;-75
2021/11/13 07:35:46;;;;;;;18.45;16.52;;;11.40;84.30;;;;;;4957575;28;94210;-75
2021/11/13 07:38:13;;;;;;;17.95;15.75;;;11.40;84.40;;;;;;4972979;28;94186;-75
2021/11/13 07:40:40;;;;;;;19.73;16.23;;;11.40;84.30;;;;;;4957396;28;92561;-75
2021/11/13 07:43:10;;;;;;;17.90;16.00;;;11.40;84.20;;;;;;4974023;28;91840;-75
2021/11/13 07:45:37;;;;;;;19.60;17.50;;;11.40;84.20;;;;;;4974278;28;93174;-75
2021/11/13 07:48:07;;;;;;;19.90;16.58;;;11.40;84.30;;;;;;4974697;28;92815;-75
2021/11/13 07:50:35;;;;;;;19.70;16.73;;;11.40;84.20;;;;;;4972356;28;94876;-75
2021/11/13 07:53:04;;;;;;;23.85;19.08;;;11.50;84.20;;;;;;4974338;28;94732;-75
2021/11/13 07:55:32;;;;;;;18.23;16.02;;;11.50;84.10;;;;;;4974624;28;93034;-75
2021/11/13 07:57:59;;;;;;;19.02;16.27;;;11.50;84.00;;;;;;4974315;28;92989;-75
2021/11/13 08:00:27;;;;;;;18.23;16.27;;;11.50;84.00;;;;;;4973223;28;92552;-75
2021/11/13 08:02:54;;;;;;;19.73;16.35;;;11.50;84.20;;;;;;4974747;28;93265;-75
2021/11/13 08:05:22;;;;;;;19.85;16.55;;;11.60;84.30;;;;;;4973315;28;93249;-75
2021/11/13 08:07:50;;;;;;;24.00;18.50;;;11.50;84.10;;;;;;4975264;28;92926;-75
2021/11/13 08:10:18;;;;;;;20.92;16.95;;;11.60;84.00;;;;;;4974267;28;98719;-75
2021/11/13 08:12:47;;;;;;;21.02;17.55;;;11.60;84.10;;;;;;4974855;28;92561;-75
2021/11/13 08:15:16;;;;;;;23.58;19.23;;;11.60;84.20;;;;;;4973143;28;95613;-75
2021/11/13 08:17:44;;;;;;;21.58;18.20;;;11.60;84.30;;;;;;4973100;28;95079;-75
2021/11/13 08:20:12;;;;;;;21.77;18.10;;;11.60;84.30;;;;;;4974260;28;92426;-75
2021/11/13 08:22:41;;;;;;;26.10;19.70;;;11.60;84.30;;;;;;4974617;28;92500;-75
2021/11/13 08:25:10;;;;;;;25.40;20.15;;;11.60;84.30;;;;;;4974153;28;93049;-75
2021/11/13 08:27:38;;;;;;;25.85;19.05;;;11.70;84.10;;;;;;4973559;28;92977;-75
2021/11/13 08:30:06;;;;;;;28.30;19.98;;;11.70;84.00;;;;;;4977562;28;92649;-75
2021/11/13 08:32:36;;;;;;;25.02;19.05;;;11.70;83.90;;;;;;4976745;28;91763;-75
2021/11/13 08:35:04;;;;;;;26.13;20.33;;;11.70;84.00;;;;;;4977203;28;93336;-75
2021/11/13 08:37:32;;;;;;;25.70;19.25;;;11.70;83.90;;;;;;4975705;28;105470;-75
2021/11/13 08:39:59;;;;;;;25.13;19.75;;;11.80;83.90;;;;;;4976438;28;94795;-75
2021/11/13 08:42:26;;;;;;;27.52;19.75;;;11.80;83.80;;;;;;4977768;28;92915;-75
2021/11/13 08:44:54;;;;;;;30.15;20.33;;;11.80;84.30;;;;;;4976830;28;93220;-75
2021/11/13 08:47:23;;;;;;;24.55;20.02;;;11.90;83.80;;;;;;4975953;28;93057;-75
2021/11/13 08:49:50;;;;;;;26.05;20.77;;;11.90;83.60;;;;;;4977510;28;92845;-75
2021/11/13 08:52:18;;;;;;;28.55;21.00;;;12.00;83.50;;;;;;4977373;28;92494;-75
2021/11/13 08:54:47;;;;;;;29.17;20.10;;;12.00;83.30;;;;;;4976148;28;93243;-75
2021/11/13 08:57:15;;;;;;;29.25;21.48;;;12.10;83.30;;;;;;4977223;28;92895;-75
2021/11/13 08:59:42;;;;;;;28.88;20.95;;;12.20;83.20;;;;;;4975941;28;93007;-75
2021/11/13 09:02:18;;;;;;;32.03;21.33;;;12.30;83.00;;;;;;4977074;28;92459;-75
2021/11/13 09:04:47;;;;;;;29.35;21.17;;;12.30;82.80;;;;;;4976063;28;94872;-75
2021/11/13 09:07:16;;;;;;;27.65;20.92;;;12.40;82.70;;;;;;4975390;28;96428;-75
2021/11/13 09:09:44;;;;;;;28.85;20.38;;;12.40;82.50;;;;;;4977080;28;92529;-75
2021/11/13 09:12:27;;;;;;;28.45;21.48;;;12.50;82.40;;;;;;4975663;28;92603;-75
2021/11/13 09:14:58;;;;;;;30.40;21.00;;;12.50;82.30;;;;;;4977094;28;93047;-75
2021/11/13 09:17:27;;;;;;;23.80;19.55;;;12.60;82.30;;;;;;4976815;28;92966;-75
2021/11/13 09:19:54;;;;;;;26.60;21.10;;;12.60;82.10;;;;;;4976981;28;92574;-75
2021/11/13 09:22:21;;;;;;;24.75;19.85;;;12.60;82.10;;;;;;4977108;28;91805;-76
2021/11/13 09:24:48;;;;;;;28.17;21.20;;;12.60;82.00;;;;;;4975406;28;93192;-75
2021/11/13 09:27:16;;;;;;;29.15;21.08;;;12.60;81.90;;;;;;4975464;28;92939;-75
2021/11/13 09:29:44;;;;;;;26.27;20.65;;;12.70;81.80;;;;;;4975559;28;94891;-75
2021/11/13 09:32:11;;;;;;;26.00;20.02;;;12.70;81.70;;;;;;4976587;28;92474;-75
2021/11/13 09:34:38;;;;;;;24.75;18.95;;;12.80;81.60;;;;;;4976476;28;96122;-75
2021/11/13 09:37:05;;;;;;;28.73;21.25;;;12.80;81.60;;;;;;4975040;28;92913;-75
2021/11/13 09:39:32;;;;;;;30.30;21.77;;;12.80;81.50;;;;;;4975995;28;92542;-75
2021/11/13 09:42:02;;;;;;;29.20;22.23;;;12.80;81.40;;;;;;4972018;28;92696;-75
2021/11/13 09:44:29;;;;;;;28.88;20.98;;;12.90;81.40;;;;;;4975952;28;92978;-74
2021/11/13 09:46:59;;;;;;;25.80;21.08;;;12.90;81.20;;;;;;4975449;28;92701;-75
2021/11/13 09:49:29;;;;;;;27.30;21.38;;;12.90;81.30;;;;;;4975278;28;92478;-75
2021/11/13 09:51:58;;;;;;;29.33;22.13;;;12.90;81.30;;;;;;4975271;28;92386;-75
2021/11/13 09:54:26;;;;;;;28.45;21.75;;;12.90;81.30;;;;;;4974793;28;95335;-75
2021/11/13 09:56:54;;;;;;;30.05;21.95;;;13.00;81.30;;;;;;4975277;28;111020;-75
2021/11/13 09:59:22;;;;;;;28.15;21.98;;;12.90;81.20;;;;;;4976342;28;92451;-75
2021/11/13 10:01:49;;;;;;;27.20;21.38;;;13.00;81.20;;;;;;4976253;28;92478;-75
2021/11/13 10:04:16;;;;;;;26.48;20.70;;;13.00;81.10;;;;;;4974440;28;93073;-75
2021/11/13 10:06:43;;;;;;;26.70;20.98;;;13.10;81.10;;;;;;4976196;28;92796;-75
2021/11/13 10:09:10;;;;;;;29.15;20.55;;;13.10;81.20;;;;;;4976350;28;92363;-76
2021/11/13 10:11:40;;;;;;;24.83;18.92;;;13.20;81.00;;;;;;4976560;28;91720;-75
2021/11/13 10:14:07;;;;;;;29.50;19.92;;;13.20;81.10;;;;;;4974603;28;92991;-75
2021/11/13 10:16:46;;;;;;;25.15;20.38;;;13.30;81.00;;;;;;4973589;28;108724;-75
2021/11/13 10:19:18;;;;;;;29.60;21.02;;;13.30;80.80;;;;;;4974794;28;94872;-74
2021/11/13 10:21:51;;;;;;;28.77;20.17;;;13.30;80.70;;;;;;4958412;28;92418;-75
2021/11/13 10:24:27;;;;;;;24.20;19.25;;;13.40;80.60;;;;;;4975754;28;93098;-74
2021/11/13 10:27:00;;;;;;;29.88;20.83;;;13.40;80.50;;;;;;4976184;28;92947;-75
2021/11/13 10:29:31;;;;;;;67.43;53.60;;;13.40;80.30;;;;;;4975426;28;93406;-75
2021/11/13 10:32:01;;;;;;;31.60;23.83;;;13.40;80.40;;;;;;4975943;28;92481;-75
2021/11/13 10:34:41;;;;;;;28.42;22.42;;;13.40;80.30;;;;;;4975182;28;93099;-75
2021/11/13 10:37:13;;;;;;;25.77;20.30;;;13.40;80.30;;;;;;4976194;28;92895;-75
2021/11/13 10:39:42;;;;;;;26.73;20.83;;;13.50;80.20;;;;;;4975709;28;92369;-75
2021/11/13 10:42:13;;;;;;;27.50;20.17;;;13.50;80.10;;;;;;4975233;28;100303;-75
2021/11/13 10:44:49;;;;;;;27.58;21.52;;;13.60;80.10;;;;;;4973896;28;95370;-74
2021/11/13 10:47:20;;;;;;;23.50;19.77;;;13.60;79.90;;;;;;4975726;28;95132;-75
2021/11/13 10:49:49;;;;;;;30.40;25.30;;;13.60;79.90;;;;;;4975777;28;92553;-75
2021/11/13 10:52:17;;;;;;;26.77;22.30;;;13.50;79.90;;;;;;4975132;28;93109;-75
2021/11/13 10:54:50;;;;;;;84.88;63.20;;;13.50;79.90;;;;;;4975385;28;92980;-75
2021/11/13 10:57:26;;;;;;;78.68;57.15;;;13.50;80.20;;;;;;4975357;28;92857;-75
2021/11/13 10:59:53;;;;;;;55.58;40.63;;;13.50;80.20;;;;;;4975733;28;92473;-75
2021/11/13 11:02:22;;;;;;;31.75;24.30;;;13.50;80.30;;;;;;4974529;28;91700;-75
2021/11/13 11:04:50;;;;;;;28.55;21.63;;;13.50;80.40;;;;;;4975082;28;93284;-75
2021/11/13 11:07:25;;;;;;;31.23;22.35;;;13.40;80.40;;;;;;4973747;28;105051;-75
2021/11/13 11:09:59;;;;;;;62.03;50.97;;;13.50;80.40;;;;;;4974422;28;95445;-75
2021/11/13 11:12:29;;;;;;;33.60;23.95;;;13.50;80.50;;;;;;4973807;28;92451;-75
2021/11/13 11:14:56;;;;;;;32.80;23.45;;;13.50;80.50;;;;;;4975134;28;93004;-75
2021/11/13 11:17:27;;;;;;;29.00;20.05;;;13.40;80.40;;;;;;4973266;28;95695;-75
2021/11/13 11:20:01;;;;;;;23.02;19.30;;;13.40;80.40;;;;;;4975075;28;97626;-75
2021/11/13 11:22:28;;;;;;;29.83;20.52;;;13.40;80.40;;;;;;4973640;28;92493;-75
2021/11/13 11:25:01;;;;;;;26.33;21.35;;;13.40;80.50;;;;;;4957629;28;95816;-75
2021/11/13 11:27:48;;;;;;;24.70;19.42;;;13.40;80.60;;;;;;4973882;28;94146;-75
2021/11/13 11:30:18;;;;;;;32.83;24.10;;;13.40;80.60;;;;;;4975330;28;92545;-75
2021/11/13 11:32:49;;;;;;;29.27;20.35;;;13.40;80.50;;;;;;4975045;28;92401;-75
2021/11/13 11:35:19;;;;;;;24.13;18.65;;;13.40;80.50;;;;;;4972492;28;97482;-75
2021/11/13 11:37:50;;;;;;;25.08;19.35;;;13.40;80.60;;;;;;4974402;28;95368;-75
2021/11/13 11:40:19;;;;;;;23.70;19.02;;;13.40;80.50;;;;;;4975239;28;92534;-75
2021/11/13 11:42:50;;;;;;;24.92;19.63;;;13.40;80.40;;;;;;4973465;28;92365;-75
2021/11/13 11:45:20;;;;;;;25.00;19.48;;;13.40;80.50;;;;;;4973088;28;94079;-75
2021/11/13 11:47:50;;;;;;;26.00;20.45;;;13.40;80.50;;;;;;4973194;28;93141;-75
2021/11/13 11:50:24;;;;;;;27.02;20.75;;;13.50;80.40;;;;;;4972830;28;109363;-75
2021/11/13 11:52:56;;;;;;;29.45;20.33;;;13.50;80.30;;;;;;4975205;28;92647;-75
2021/11/13 11:55:23;;;;;;;25.50;19.23;;;13.50;80.20;;;;;;4973212;28;97513;-75
2021/11/13 11:57:57;;;;;;;25.42;19.35;;;13.50;80.20;;;;;;4974544;28;92542;-75
2021/11/13 12:00:26;;;;;;;25.35;20.17;;;13.60;80.10;;;;;;4973827;28;94915;-75
2021/11/13 12:02:57;;;;;;;23.75;19.33;;;13.60;80.20;;;;;;4975021;28;93173;-75
2021/11/13 12:05:29;;;;;;;27.73;20.63;;;13.60;80.00;;;;;;4976464;28;94454;-75
2021/11/13 12:07:58;;;;;;;26.17;20.35;;;13.60;79.90;;;;;;4976654;28;94072;-75
2021/11/13 12:10:29;;;;;;;27.33;20.17;;;13.60;79.90;;;;;;4977932;28;92499;-75
2021/11/13 12:13:01;;;;;;;30.45;20.67;;;13.60;79.90;;;;;;4978210;28;92455;-75
2021/11/13 12:15:29;;;;;;;28.38;20.40;;;13.70;80.00;;;;;;4978217;28;93111;-75
2021/11/13 12:18:14;;;;;;;27.33;21.88;;;13.60;80.00;;;;;;4977496;28;106059;-75
2021/11/13 12:20:42;;;;;;;30.92;20.70;;;13.70;80.00;;;;;;4977849;28;92354;-75
2021/11/13 12:23:15;;;;;;;31.05;21.73;;;13.60;80.10;;;;;;4976005;28;103601;-75
2021/11/13 12:26:02;;;;;;;37.47;22.85;;;13.70;80.70;;;;;;4974975;28;95716;-75
2021/11/13 12:28:30;;;;;;;28.80;20.63;;;13.80;79.80;;;;;;4962957;28;95241;-75
2021/11/13 12:31:04;;;;;;;27.25;20.52;;;13.70;79.90;;;;;;4977998;28;92807;-75
2021/11/13 12:33:34;;;;;;;30.67;21.30;;;13.80;80.30;;;;;;4977605;28;92510;-75